createdAt,value
2023-05-02T00:01:44.237Z,99567.43
2023-05-02T00:04:16.289Z,99565.77
2023-05-02T00:06:48.356Z,99570.01
2023-05-02T00:09:20.364Z,99564.05
2023-05-02T00:11:50.660Z,99559.67
2023-05-02T00:14:22.480Z,99561.77
2023-05-02T00:16:54.165Z,99559.55
2023-05-02T00:19:26.024Z,99557.64
2023-05-02T00:21:57.719Z,99559.55
2023-05-02T00:24:29.500Z,99557.27
2023-05-02T00:27:01.200Z,99553.29
2023-05-02T00:29:33.344Z,99552.86
2023-05-02T00:32:05.199Z,99554.55
2023-05-02T00:34:37.078Z,99550.07
2023-05-02T00:37:09.633Z,99549.27
2023-05-02T00:39:41.722Z,99545.77
2023-05-02T00:42:13.622Z,99546.77
2023-05-02T00:44:45.865Z,99542.94
2023-05-02T00:47:18.407Z,99540.90
2023-05-02T00:49:50.693Z,99537.17
2023-05-02T00:52:22.826Z,99530.64
2023-05-02T00:54:53.121Z,99533.02
2023-05-02T00:57:25.589Z,99533.89
2023-05-02T00:59:58.232Z,99529.27
2023-05-02T01:02:39.870Z,99531.83
2023-05-02T01:05:20.356Z,99532.23
2023-05-02T01:08:15.199Z,99531.25
2023-05-02T01:10:53.848Z,99534.50
2023-05-02T01:13:30.307Z,99537.09
2023-05-02T01:16:04.587Z,99538.59
2023-05-02T01:18:40.530Z,99540.92
2023-05-02T01:21:13.436Z,99539.87
2023-05-02T01:24:01.825Z,99540.23
2023-05-02T01:26:41.147Z,99546.23
2023-05-02T01:29:15.478Z,99543.16
2023-05-02T01:31:51.456Z,99543.63
2023-05-02T01:34:24.418Z,99540.33
2023-05-02T01:36:59.329Z,99538.33
2023-05-02T01:39:31.750Z,99534.48
2023-05-02T01:42:06.102Z,99539.05
2023-05-02T01:44:39.714Z,99533.08
2023-05-02T01:47:13.246Z,99529.25
2023-05-02T01:49:47.582Z,99526.34
2023-05-02T01:52:21.845Z,99525.34
2023-05-02T01:54:54.969Z,99521.17
2023-05-02T01:57:27.127Z,99518.23
2023-05-02T02:00:01.298Z,99522.39
2023-05-02T02:02:36.056Z,99520.25
2023-05-02T02:05:12.429Z,99523.85
2023-05-02T02:07:45.558Z,99521.10
2023-05-02T02:10:17.684Z,99525.04
2023-05-02T02:12:56.810Z,99519.64
2023-05-02T02:15:32.168Z,99519.09
2023-05-02T02:18:10.404Z,99521.05
2023-05-02T02:20:47.141Z,99515.69
2023-05-02T02:23:20.898Z,99513.52
2023-05-02T02:25:55.245Z,99517.96
2023-05-02T02:28:27.106Z,99522.13
2023-05-02T02:31:00.639Z,99523.58
2023-05-02T02:33:33.170Z,99523.48
2023-05-02T02:36:13.223Z,99520.88
2023-05-02T02:38:49.705Z,99524.38
2023-05-02T02:41:27.498Z,99526.95
2023-05-02T02:44:07.245Z,99526.64
2023-05-02T02:46:48.322Z,99526.80
2023-05-02T02:49:33.090Z,99530.15
2023-05-02T02:52:11.630Z,99531.66
2023-05-02T02:54:48.076Z,99535.15
2023-05-02T02:57:30.030Z,99540.71
2023-05-02T03:00:12.824Z,99547.22
2023-05-02T03:02:47.710Z,99562.46
2023-05-02T03:05:20.587Z,99562.55
2023-05-02T03:07:52.588Z,99552.90
2023-05-02T03:10:26.132Z,99558.21
2023-05-02T03:12:57.939Z,99565.13
2023-05-02T03:15:59.425Z,99567.80
2023-05-02T03:18:33.611Z,99557.77
2023-05-02T03:21:05.606Z,99551.70
2023-05-02T03:23:37.583Z,99551.35
2023-05-02T03:26:09.755Z,99558.61
2023-05-02T03:28:42.197Z,99557.95
2023-05-02T03:31:14.787Z,99558.30
2023-05-02T03:33:47.017Z,99564.65
2023-05-02T03:36:19.030Z,99564.20
2023-05-02T03:38:50.964Z,99567.97
2023-05-02T03:41:21.399Z,99572.22
2023-05-02T03:43:55.053Z,99578.01
2023-05-02T03:46:28.420Z,99578.16
2023-05-02T03:49:01.545Z,99582.91
2023-05-02T03:51:34.368Z,99580.63
2023-05-02T03:54:06.276Z,99576.89
2023-05-02T03:56:41.283Z,99569.89
2023-05-02T03:59:20.272Z,99571.38
2023-05-02T04:01:52.820Z,99567.35
2023-05-02T04:04:29.253Z,99571.09
2023-05-02T04:07:01.397Z,99573.70
2023-05-02T04:09:33.406Z,99572.30
2023-05-02T04:12:11.443Z,99574.53
2023-05-02T04:14:46.798Z,99583.52
2023-05-02T04:17:17.362Z,99584.08
2023-05-02T04:19:54.494Z,99594.13
2023-05-02T04:22:29.700Z,99596.87
2023-05-02T04:25:05.297Z,99613.85
2023-05-02T04:27:38.646Z,99623.29
2023-05-02T04:30:13.056Z,99632.83
2023-05-02T04:32:47.073Z,99632.62
2023-05-02T04:35:20.148Z,99629.36
2023-05-02T04:37:53.285Z,99629.67
2023-05-02T04:40:25.538Z,99633.05
2023-05-02T04:43:04.096Z,99636.30
2023-05-02T04:45:43.949Z,99635.60
2023-05-02T04:48:21.785Z,99637.14
2023-05-02T04:50:54.973Z,99639.94
2023-05-02T04:53:27.152Z,99640.58
2023-05-02T04:55:57.719Z,99642.44
2023-05-02T04:58:29.600Z,99642.51
2023-05-02T05:01:05.385Z,99647.35
2023-05-02T05:03:37.321Z,99646.61
2023-05-02T05:06:10.420Z,99653.31
2023-05-02T05:08:42.503Z,99655.42
2023-05-02T05:11:14.612Z,99658.27
2023-05-02T05:13:45.006Z,99664.86
2023-05-02T05:16:17.486Z,99663.39
2023-05-02T05:18:49.868Z,99667.87
2023-05-02T05:21:21.618Z,99674.48
2023-05-02T05:23:54.202Z,99683.20
2023-05-02T05:26:30.138Z,99682.80
2023-05-02T05:29:02.118Z,99683.14
2023-05-02T05:31:38.673Z,99686.45
2023-05-02T05:34:11.574Z,99692.14
2023-05-02T05:36:44.112Z,99698.73
2023-05-02T05:39:16.500Z,99698.14
2023-05-02T05:41:49.977Z,99700.00
2023-05-02T05:44:22.318Z,99698.75
2023-05-02T05:46:54.432Z,99701.10
2023-05-02T05:49:27.638Z,99701.52
2023-05-02T05:52:00.465Z,99702.52
2023-05-02T05:54:32.534Z,99709.11
2023-05-02T05:57:05.114Z,99710.27
2023-05-02T05:59:38.703Z,99707.54
2023-05-02T06:02:10.912Z,99711.68
2023-05-02T06:04:43.065Z,99715.66
2023-05-02T06:07:15.733Z,99722.20
2023-05-02T06:09:47.529Z,99726.61
2023-05-02T06:12:21.486Z,99731.11
2023-05-02T06:14:54.116Z,99731.21
2023-05-02T06:17:26.584Z,99735.58
2023-05-02T06:19:58.835Z,99736.69
2023-05-02T06:22:30.708Z,99735.02
2023-05-02T06:25:01.648Z,99738.91
2023-05-02T06:27:33.826Z,99744.17
2023-05-02T06:30:06.790Z,99741.54
2023-05-02T06:32:38.599Z,99740.95
2023-05-02T06:35:09.757Z,99743.07
2023-05-02T06:37:41.580Z,99747.52
2023-05-02T06:40:13.561Z,99747.04
2023-05-02T06:42:45.438Z,99747.46
2023-05-02T06:45:15.835Z,99756.95
2023-05-02T06:47:47.842Z,99755.70
2023-05-02T06:50:21.055Z,99761.70
2023-05-02T06:52:52.696Z,99763.90
2023-05-02T06:55:23.088Z,99767.55
2023-05-02T06:57:55.386Z,99773.80
2023-05-02T07:00:27.304Z,99778.79
2023-05-02T07:02:59.315Z,99779.92
2023-05-02T07:05:32.063Z,99782.25
2023-05-02T07:08:03.690Z,99779.18
2023-05-02T07:10:35.480Z,99783.43
2023-05-02T07:13:07.555Z,99791.16
2023-05-02T07:15:39.802Z,99792.31
2023-05-02T07:18:11.785Z,99795.27
2023-05-02T07:20:43.693Z,99797.52
2023-05-02T07:23:13.880Z,99797.83
2023-05-02T07:25:45.945Z,99803.63
2023-05-02T07:28:17.761Z,99805.91
2023-05-02T07:30:48.398Z,99809.89
2023-05-02T07:33:20.290Z,99811.05
2023-05-02T07:35:52.225Z,99816.23
2023-05-02T07:38:24.021Z,99825.05
2023-05-02T07:40:54.597Z,99834.95
2023-05-02T07:43:26.630Z,99838.35
2023-05-02T07:45:58.408Z,99837.04
2023-05-02T07:48:28.686Z,99838.15
2023-05-02T07:51:08.433Z,99839.23
2023-05-02T07:53:40.240Z,99844.64
2023-05-02T07:56:10.550Z,99850.09
2023-05-02T07:58:42.252Z,99856.45
2023-05-02T08:01:15.535Z,99861.84
2023-05-02T08:03:47.775Z,99860.23
2023-05-02T08:06:20.062Z,99863.62
2023-05-02T08:08:51.843Z,99862.45
2023-05-02T08:11:23.856Z,99865.89
2023-05-02T08:13:54.188Z,99870.79
2023-05-02T08:16:26.158Z,99869.60
2023-05-02T08:18:57.992Z,99876.88
2023-05-02T08:21:28.534Z,99880.08
2023-05-02T08:24:02.423Z,99881.23
2023-05-02T08:26:34.360Z,99880.62
2023-05-02T08:29:06.103Z,99885.30
2023-05-02T08:31:36.319Z,99882.65
2023-05-02T08:34:08.365Z,99886.74
2023-05-02T08:36:40.248Z,99892.48
2023-05-02T08:39:12.210Z,99893.41
2023-05-02T08:41:44.887Z,99897.13
2023-05-02T08:44:16.685Z,99895.02
2023-05-02T08:46:50.938Z,99902.25
2023-05-02T08:49:23.853Z,99903.13
2023-05-02T08:51:57.898Z,99900.02
2023-05-02T08:54:30.046Z,99903.89
2023-05-02T08:57:04.902Z,99904.17
2023-05-02T08:59:36.757Z,99906.10
2023-05-02T09:02:13.680Z,99906.36
2023-05-02T09:04:46.449Z,99911.65
2023-05-02T09:07:22.173Z,99913.42
2023-05-02T09:09:53.999Z,99918.41
2023-05-02T09:12:27.694Z,99919.38
2023-05-02T09:15:16.993Z,99921.52
2023-05-02T09:17:51.222Z,99919.31
2023-05-02T09:20:25.794Z,99922.28
2023-05-02T09:22:57.678Z,99925.20
2023-05-02T09:25:37.512Z,99925.88
2023-05-02T09:28:09.241Z,99929.45
2023-05-02T09:30:41.035Z,99934.63
2023-05-02T09:33:11.779Z,99937.76
2023-05-02T09:35:56.368Z,99937.67
2023-05-02T09:38:28.162Z,99950.27
2023-05-02T09:41:00.566Z,99955.04
2023-05-02T09:43:33.719Z,99962.48
2023-05-02T09:46:06.935Z,99969.49
2023-05-02T09:48:56.002Z,99974.95
2023-05-02T09:51:28.292Z,99978.02
2023-05-02T09:54:00.206Z,99974.14
2023-05-02T09:56:30.726Z,99971.08
2023-05-02T09:59:16.384Z,99973.70
2023-05-02T10:01:56.091Z,99982.49
2023-05-02T10:04:29.499Z,99990.19
2023-05-02T10:07:02.763Z,99997.45
2023-05-02T10:09:39.521Z,100000.02
2023-05-02T10:12:14.728Z,100000.67
2023-05-02T10:14:50.798Z,100005.21
2023-05-02T10:17:29.525Z,100006.30
2023-05-02T10:20:05.777Z,100005.27
2023-05-02T10:22:37.879Z,100004.89
2023-05-02T10:25:12.193Z,100001.64
2023-05-02T10:27:44.884Z,100001.75
2023-05-02T10:30:17.840Z,100001.38
2023-05-02T10:32:50.516Z,99992.34
2023-05-02T10:35:24.450Z,99989.31
2023-05-02T10:37:56.518Z,99989.81
2023-05-02T10:40:29.088Z,99998.25
2023-05-02T10:43:01.048Z,99999.25
2023-05-02T10:45:35.208Z,100003.17
2023-05-02T10:48:25.101Z,100007.56
2023-05-02T10:50:58.625Z,100011.21
2023-05-02T10:53:33.218Z,100012.08
2023-05-02T10:56:22.472Z,100011.18
2023-05-02T10:58:54.805Z,100013.23
2023-05-02T11:01:42.279Z,100015.27
2023-05-02T11:04:14.925Z,100013.44
2023-05-02T11:07:13.798Z,100008.14
2023-05-02T11:09:45.829Z,100011.20
2023-05-02T11:12:47.690Z,100016.02
2023-05-02T11:15:53.768Z,100024.04
2023-05-02T11:18:26.419Z,100034.91
2023-05-02T11:21:32.033Z,100042.73
2023-05-02T11:24:40.285Z,100045.20
2023-05-02T11:27:39.411Z,100034.20
2023-05-02T11:30:14.109Z,100030.27
2023-05-02T11:33:16.138Z,100031.30
2023-05-02T11:35:50.252Z,100028.60
2023-05-02T11:38:23.841Z,100028.95
2023-05-02T11:41:04.220Z,100023.17
2023-05-02T11:43:36.412Z,100033.48
2023-05-02T11:46:10.346Z,100033.16
2023-05-02T11:48:42.808Z,100041.70
2023-05-02T11:51:15.040Z,100046.46
2023-05-02T11:53:47.356Z,100046.20
2023-05-02T11:56:26.870Z,100049.11
2023-05-02T11:59:05.400Z,100043.60
2023-05-02T12:01:37.493Z,100048.75
2023-05-02T12:04:11.850Z,100052.20
2023-05-02T12:06:57.725Z,100056.02
2023-05-02T12:09:29.538Z,100061.27
2023-05-02T12:12:02.919Z,100059.46
2023-05-02T12:14:36.536Z,100063.61
2023-05-02T12:17:08.924Z,100069.95
2023-05-02T12:19:41.404Z,100073.17
2023-05-02T12:22:14.678Z,100073.27
2023-05-02T12:24:47.446Z,100076.63
2023-05-02T12:27:19.911Z,100076.02
2023-05-02T12:29:54.685Z,100075.44
2023-05-02T12:32:32.790Z,100069.84
2023-05-02T12:35:06.082Z,100071.59
2023-05-02T12:37:38.008Z,100068.14
2023-05-02T12:40:18.143Z,100066.73
2023-05-02T12:43:06.645Z,100067.58
2023-05-02T12:45:42.115Z,100063.84
2023-05-02T12:48:25.724Z,100064.70
2023-05-02T12:50:58.609Z,100065.64
2023-05-02T12:53:44.378Z,100061.29
2023-05-02T12:56:19.957Z,100061.42
2023-05-02T12:58:53.153Z,100060.23
2023-05-02T13:01:25.510Z,100058.02
2023-05-02T13:03:57.384Z,100057.61
2023-05-02T13:06:32.261Z,100062.99
2023-05-02T13:09:04.906Z,100061.63
2023-05-02T13:11:36.940Z,100054.27
2023-05-02T13:14:08.733Z,100055.98
2023-05-02T13:16:39.253Z,100059.35
2023-05-02T13:19:11.027Z,100056.69
2023-05-02T13:21:42.928Z,100050.67
2023-05-02T13:24:15.066Z,100054.15
2023-05-02T13:26:47.134Z,100056.66
2023-05-02T13:29:19.169Z,100052.56
2023-05-02T13:31:51.099Z,100051.14
2023-05-02T13:34:22.992Z,100050.80
2023-05-02T13:36:53.247Z,100054.99
2023-05-02T13:39:24.935Z,100052.77
2023-05-02T13:41:56.892Z,100052.33
2023-05-02T13:44:27.167Z,100050.77
2023-05-02T13:49:44.971Z,100045.02
2023-05-02T13:52:15.348Z,100041.69
2023-05-02T13:54:47.426Z,100044.35
2023-05-02T13:57:19.253Z,100042.27
2023-05-02T13:59:51.387Z,100041.87
2023-05-02T14:02:23.618Z,100045.10
2023-05-02T14:04:56.179Z,100045.17
2023-05-02T14:07:27.879Z,100048.61
2023-05-02T14:09:58.275Z,100047.17
2023-05-02T14:12:30.143Z,100053.17
2023-05-02T14:15:01.866Z,100055.22
2023-05-02T14:17:36.433Z,100057.20
2023-05-02T14:20:12.277Z,100061.44
2023-05-02T14:22:43.966Z,100064.27
2023-05-02T14:25:15.777Z,100067.05
2023-05-02T14:27:47.778Z,100069.80
2023-05-02T14:30:20.084Z,100073.70
2023-05-02T14:32:52.203Z,100074.41
2023-05-02T14:35:24.922Z,100077.58
2023-05-02T14:37:56.610Z,100082.84
2023-05-02T14:40:28.855Z,100085.20
2023-05-02T14:43:01.418Z,100085.31
2023-05-02T14:45:33.422Z,100084.14
2023-05-02T14:48:06.536Z,100080.08
2023-05-02T14:50:39.755Z,100083.19
2023-05-02T14:53:12.968Z,100085.02
2023-05-02T14:55:44.949Z,100082.18
2023-05-02T14:58:20.897Z,100082.84
2023-05-02T15:00:52.858Z,100085.90
2023-05-02T15:03:25.243Z,100088.91
2023-05-02T15:05:57.414Z,100086.60
2023-05-02T15:08:29.094Z,100086.16
2023-05-02T15:11:01.025Z,100086.87
2023-05-02T15:13:31.671Z,100090.10
2023-05-02T15:16:03.818Z,100090.67
2023-05-02T15:18:34.677Z,100094.92
2023-05-02T15:21:07.074Z,100097.21
2023-05-02T15:23:39.017Z,100101.95
2023-05-02T15:26:12.876Z,100099.39
2023-05-02T15:28:44.664Z,100102.14
2023-05-02T15:31:15.402Z,100103.65
2023-05-02T15:33:47.320Z,100105.73
2023-05-02T15:36:17.987Z,100106.86
2023-05-02T15:38:49.905Z,100106.83
2023-05-02T15:41:20.341Z,100106.65
2023-05-02T15:43:52.024Z,100117.39
2023-05-02T15:46:23.791Z,100115.65
2023-05-02T15:48:56.335Z,100114.34
2023-05-02T15:51:28.601Z,100120.25
2023-05-02T15:54:00.877Z,100120.23
2023-05-02T15:56:32.902Z,100124.27
2023-05-02T15:59:04.797Z,100124.73
2023-05-02T16:01:36.673Z,100126.71
2023-05-02T16:04:10.096Z,100126.21
2023-05-02T16:06:42.220Z,100128.36
2023-05-02T16:09:14.497Z,100128.05
2023-05-02T16:11:46.436Z,100130.94
2023-05-02T16:14:16.681Z,100132.75
2023-05-02T16:16:48.610Z,100137.31
2023-05-02T16:19:19.362Z,100135.10
2023-05-02T16:21:51.640Z,100135.04
2023-05-02T16:24:23.518Z,100137.08
2023-05-02T16:26:53.856Z,100143.41
2023-05-02T16:29:25.854Z,100144.80
2023-05-02T16:31:57.820Z,100148.54
2023-05-02T16:34:28.293Z,100147.38
2023-05-02T16:37:01.854Z,100151.60
2023-05-02T16:39:35.942Z,100152.70
2023-05-02T16:42:08.495Z,100158.72
2023-05-02T16:44:42.979Z,100155.55
2023-05-02T16:47:16.567Z,100155.60
2023-05-02T16:49:48.574Z,100156.89
2023-05-02T16:52:20.431Z,100154.50
2023-05-02T16:54:52.937Z,100158.02
2023-05-02T16:57:24.734Z,100151.23
2023-05-02T16:59:56.578Z,100152.67
2023-05-02T17:02:27.266Z,100151.84
2023-05-02T17:04:59.219Z,100149.27
2023-05-02T17:07:31.359Z,100145.69
2023-05-02T17:10:04.524Z,100142.36
2023-05-02T17:12:36.559Z,100146.59
2023-05-02T17:15:14.142Z,100148.15
2023-05-02T17:17:48.485Z,100150.59
2023-05-02T17:20:20.986Z,100147.01
2023-05-02T17:22:54.467Z,100148.02
2023-05-02T17:25:26.630Z,100152.21
2023-05-02T17:27:58.854Z,100154.73
2023-05-02T17:30:30.585Z,100153.52
2023-05-02T17:33:02.922Z,100155.41
2023-05-02T17:35:34.800Z,100156.52
2023-05-02T17:38:06.894Z,100153.39
2023-05-02T17:40:38.152Z,100159.70
2023-05-02T17:43:10.291Z,100156.09
2023-05-02T17:45:42.138Z,100158.33
2023-05-02T17:48:14.260Z,100157.27
2023-05-02T17:50:46.773Z,100161.26
2023-05-02T17:53:18.783Z,100159.50
2023-05-02T17:55:51.100Z,100169.52
2023-05-02T17:58:22.939Z,100171.52
2023-05-02T18:00:55.273Z,100175.31
2023-05-02T18:03:30.032Z,100173.52
2023-05-02T18:06:03.918Z,100183.03
2023-05-02T18:08:44.728Z,100185.09
2023-05-02T18:11:26.955Z,100186.18
2023-05-02T18:14:06.391Z,100188.63
2023-05-02T18:16:58.322Z,100197.75
2023-05-02T18:19:36.133Z,100196.92
2023-05-02T18:22:14.132Z,100203.55
2023-05-02T18:24:46.085Z,100210.86
2023-05-02T18:27:23.504Z,100209.85
2023-05-02T18:30:01.265Z,100215.69
2023-05-02T18:32:43.918Z,100221.77
2023-05-02T18:35:18.990Z,100226.19
2023-05-02T18:37:51.006Z,100232.70
2023-05-02T18:40:24.631Z,100238.29
2023-05-02T18:43:04.408Z,100245.47
2023-05-02T18:45:39.143Z,100252.52
2023-05-02T18:48:14.029Z,100254.45
2023-05-02T18:50:50.164Z,100253.89
2023-05-02T18:53:30.432Z,100255.71
2023-05-02T18:56:06.972Z,100262.99
2023-05-02T18:58:40.993Z,100267.25
2023-05-02T19:01:24.045Z,100265.84
2023-05-02T19:03:56.381Z,100267.64
2023-05-02T19:06:29.633Z,100271.61
2023-05-02T19:09:01.885Z,100273.19
2023-05-02T19:11:33.663Z,100274.02
2023-05-02T19:14:05.778Z,100276.83
2023-05-02T19:16:41.115Z,100279.59
2023-05-02T19:19:30.107Z,100281.86
2023-05-02T19:22:07.094Z,100283.86
2023-05-02T19:24:46.425Z,100285.63
2023-05-02T19:27:27.432Z,100288.98
2023-05-02T19:30:17.194Z,100289.86
2023-05-02T19:32:55.873Z,100298.75
2023-05-02T19:35:41.113Z,100297.35
2023-05-02T19:38:17.383Z,100302.83
2023-05-02T19:40:54.772Z,100305.83
2023-05-02T19:43:34.714Z,100304.42
2023-05-02T19:46:06.595Z,100307.39
2023-05-02T19:48:55.600Z,100312.28
2023-05-02T19:51:28.209Z,100314.08
2023-05-02T19:54:09.781Z,100314.52
2023-05-02T19:56:52.779Z,100315.28
2023-05-02T19:59:30.976Z,100319.80
2023-05-02T20:02:11.595Z,100321.06
2023-05-02T20:04:43.525Z,100329.09
2023-05-02T20:07:15.524Z,100324.51
2023-05-02T20:09:47.660Z,100330.64
2023-05-02T20:12:19.386Z,100329.55
2023-05-02T20:14:51.118Z,100333.01
2023-05-02T20:17:23.250Z,100333.42
2023-05-02T20:19:54.769Z,100334.71
2023-05-02T20:22:27.012Z,100336.48
2023-05-02T20:24:58.867Z,100339.48
2023-05-02T20:27:34.277Z,100335.48
2023-05-02T20:30:07.327Z,100339.95
2023-05-02T20:32:39.191Z,100336.36
2023-05-02T20:35:12.300Z,100337.02
2023-05-02T20:37:44.048Z,100335.38
2023-05-02T20:40:16.617Z,100338.52
2023-05-02T20:42:48.430Z,100339.41
2023-05-02T20:45:24.159Z,100341.64
2023-05-02T20:47:55.889Z,100342.50
2023-05-02T20:50:28.410Z,100350.90
2023-05-02T20:53:00.214Z,100351.09
2023-05-02T20:55:32.241Z,100353.47
2023-05-02T20:58:02.475Z,100356.93
2023-05-02T21:00:34.262Z,100359.80
2023-05-02T21:03:06.204Z,100358.11
2023-05-02T21:05:38.162Z,100360.40
2023-05-02T21:08:10.821Z,100363.95
2023-05-02T21:10:42.744Z,100364.41
2023-05-02T21:13:13.100Z,100366.52
2023-05-02T21:15:44.922Z,100362.27
2023-05-02T21:18:16.677Z,100364.05
2023-05-02T21:20:49.688Z,100360.64
2023-05-02T21:23:21.532Z,100359.52
2023-05-02T21:25:53.382Z,100361.52
2023-05-02T21:28:25.206Z,100358.66
2023-05-02T21:30:57.054Z,100359.59
2023-05-02T21:33:28.827Z,100355.78
2023-05-02T21:36:01.498Z,100361.45
2023-05-02T21:38:33.419Z,100360.69
2023-05-02T21:41:06.101Z,100359.59
2023-05-02T21:43:39.782Z,100362.44
2023-05-02T21:46:13.292Z,100368.77
2023-05-02T21:48:45.070Z,100371.90
2023-05-02T21:51:17.077Z,100373.37
2023-05-02T21:53:49.199Z,100375.08
2023-05-02T21:56:21.188Z,100375.72
2023-05-02T21:58:52.975Z,100377.18
2023-05-02T22:01:24.849Z,100380.08
2023-05-02T22:03:58.099Z,100378.95
2023-05-02T22:06:29.948Z,100379.48
2023-05-02T22:09:01.679Z,100385.75
2023-05-02T22:11:34.543Z,100384.19
2023-05-02T22:14:06.769Z,100390.06
2023-05-02T22:16:40.125Z,100388.86
2023-05-02T22:19:14.559Z,100385.08
2023-05-02T22:21:46.735Z,100388.48
2023-05-02T22:24:18.526Z,100391.77
2023-05-02T22:26:52.480Z,100394.14
2023-05-02T22:29:24.373Z,100396.29
2023-05-02T22:31:56.236Z,100400.86
2023-05-02T22:34:27.957Z,100400.09
2023-05-02T22:36:59.744Z,100403.32
2023-05-02T22:39:31.692Z,100400.61
2023-05-02T22:42:02.097Z,100403.33
2023-05-02T22:44:40.514Z,100400.40
2023-05-02T22:47:19.267Z,100399.89
2023-05-02T22:49:51.067Z,100406.60
2023-05-02T22:52:22.699Z,100410.48
2023-05-02T22:54:54.441Z,100409.80
2023-05-02T22:57:26.908Z,100409.55
2023-05-02T22:59:58.538Z,100417.19
2023-05-02T23:02:30.402Z,100416.34
2023-05-02T23:05:02.546Z,100420.61
2023-05-02T23:07:37.122Z,100422.58
2023-05-02T23:10:10.939Z,100429.35
2023-05-02T23:12:43.057Z,100424.98
2023-05-02T23:15:14.954Z,100426.48
2023-05-02T23:17:45.526Z,100425.68
2023-05-02T23:20:19.603Z,100425.20
2023-05-02T23:22:51.441Z,100428.36
2023-05-02T23:25:24.351Z,100428.29
2023-05-02T23:27:56.298Z,100426.67
2023-05-02T23:30:27.941Z,100425.20
2023-05-02T23:33:00.259Z,100426.67
2023-05-02T23:35:33.396Z,100426.24
2023-05-02T23:38:08.189Z,100427.42
2023-05-02T23:40:39.917Z,100432.27
2023-05-02T23:43:13.817Z,100434.13
2023-05-02T23:45:46.062Z,100434.26
2023-05-02T23:48:17.844Z,100434.39
2023-05-02T23:50:49.886Z,100433.24
2023-05-02T23:53:20.107Z,100434.00
2023-05-02T23:55:52.168Z,100429.98
2023-05-02T23:58:22.567Z,100430.95
